Time;durP1;ratioP1;P1;durP2;ratioP2;P2;SDS_P1;SDS_P2;PMS_P1;PMS_P2;Temp;Humidity;BMP_temperature;BMP_pressure;BME280_temperature;BME280_humidity;BME280_pressure;Samples;Min_cycle;Max_cycle;Signal;HPM_P1;HPM_P2
2021/11/06 00:03:07;;;;;;;3.97;0.88;;;;;;;;;;10267304;28;20033;-66
2021/11/06 00:08:04;;;;;;;4.20;0.70;;;;;;;;;;10262667;28;20038;-66
2021/11/06 00:13:02;;;;;;;3.20;0.67;;;;;;;;;;10265035;28;20064;-66
2021/11/06 00:17:59;;;;;;;0.50;0.50;;;;;;;;;;10263714;28;20586;-66
2021/11/06 00:22:57;;;;;;;7.30;1.17;;;;;;;;;;10263338;28;20097;-66
2021/11/06 00:27:55;;;;;;;0.80;0.30;;;;;;;;;;10263491;28;20459;-66
2021/11/06 00:32:52;;;;;;;1.67;0.83;;;;;;;;;;10246625;28;20523;-66
2021/11/06 00:37:50;;;;;;;2.43;0.57;;;;;;;;;;10243175;28;20343;-66
2021/11/06 00:42:47;;;;;;;0.93;0.60;;;;;;;;;;10240249;28;20389;-66
2021/11/06 00:47:45;;;;;;;3.13;1.13;;;;;;;;;;10245200;28;20037;-66
2021/11/06 00:52:44;;;;;;;0.93;0.82;;;;;;;;;;10243315;28;20034;-66
2021/11/06 00:57:42;;;;;;;2.50;0.68;;;;;;;;;;10241548;28;20043;-65
2021/11/06 01:02:39;;;;;;;0.75;0.55;;;;;;;;;;10239023;28;20031;-66
2021/11/06 01:07:37;;;;;;;4.50;0.97;;;;;;;;;;10244900;28;20050;-65
2021/11/06 01:12:34;;;;;;;3.87;0.67;;;;;;;;;;10233438;28;20396;-65
2021/11/06 01:17:32;;;;;;;2.60;1.07;;;;;;;;;;10246091;28;20295;-66
2021/11/06 01:22:29;;;;;;;3.27;0.50;;;;;;;;;;10242274;28;20034;-66
2021/11/06 01:27:27;;;;;;;0.87;0.67;;;;;;;;;;10250287;28;20499;-66
2021/11/06 01:32:24;;;;;;;2.47;0.87;;;;;;;;;;10241797;28;20038;-66
2021/11/06 01:37:22;;;;;;;1.83;0.70;;;;;;;;;;10246272;28;20111;-66
2021/11/06 01:42:20;;;;;;;1.93;0.67;;;;;;;;;;10239947;28;20119;-66
2021/11/06 01:47:17;;;;;;;1.95;0.93;;;;;;;;;;10225899;28;20141;-65
2021/11/06 01:52:15;;;;;;;3.23;1.27;;;;;;;;;;10254693;28;20820;-66
2021/11/06 01:57:12;;;;;;;1.33;0.73;;;;;;;;;;10254570;28;20042;-66
2021/11/06 02:02:10;;;;;;;0.77;0.77;;;;;;;;;;10263598;28;20044;-66
2021/11/06 02:07:08;;;;;;;5.70;1.15;;;;;;;;;;10256369;28;20493;-66
2021/11/06 02:12:07;;;;;;;1.90;0.70;;;;;;;;;;10252351;28;20415;-66
2021/11/06 02:17:04;;;;;;;0.93;0.88;;;;;;;;;;10259896;28;20026;-66
2021/11/06 02:22:03;;;;;;;4.50;1.23;;;;;;;;;;10248853;28;20514;-66
2021/11/06 02:27:00;;;;;;;2.70;0.80;;;;;;;;;;10261699;28;20042;-66
2021/11/06 02:31:57;;;;;;;1.00;0.87;;;;;;;;;;10257076;28;20038;-66
2021/11/06 02:36:55;;;;;;;3.50;0.77;;;;;;;;;;10247909;28;20035;-65
2021/11/06 02:42:03;;;;;;;2.37;0.70;;;;;;;;;;10247336;28;20161;-65
2021/11/06 02:47:01;;;;;;;;;;;;;;;;;;10247602;28;20190;-65
2021/11/06 02:51:58;;;;;;;11.70;1.33;;;;;;;;;;10252502;28;19917;-65
2021/11/06 02:56:56;;;;;;;3.67;1.20;;;;;;;;;;10246027;28;20401;-65
2021/11/06 03:01:53;;;;;;;2.50;0.90;;;;;;;;;;10250015;28;20582;-65
2021/11/06 03:06:51;;;;;;;2.10;0.83;;;;;;;;;;10257339;28;21112;-66
2021/11/06 03:11:49;;;;;;;3.50;0.77;;;;;;;;;;10253209;28;20130;-65
2021/11/06 03:16:46;;;;;;;3.80;1.10;;;;;;;;;;10253319;28;20041;-65
2021/11/06 03:21:43;;;;;;;3.50;0.97;;;;;;;;;;10257254;28;20042;-65
2021/11/06 03:26:41;;;;;;;2.17;1.07;;;;;;;;;;10256756;28;20042;-66
2021/11/06 03:31:38;;;;;;;2.53;0.73;;;;;;;;;;10260047;28;20081;-65
2021/11/06 03:36:36;;;;;;;0.87;0.80;;;;;;;;;;10250253;28;20034;-65
2021/11/06 03:41:33;;;;;;;1.70;1.40;;;;;;;;;;10254402;28;20049;-65
2021/11/06 03:46:31;;;;;;;1.63;0.67;;;;;;;;;;10250656;28;20045;-65
2021/11/06 03:51:28;;;;;;;4.77;1.40;;;;;;;;;;10251465;28;20396;-65
2021/11/06 03:56:26;;;;;;;2.47;1.07;;;;;;;;;;10255603;28;20038;-66
2021/11/06 04:01:23;;;;;;;7.73;1.10;;;;;;;;;;10272735;28;20561;-66
2021/11/06 04:06:21;;;;;;;0.77;0.63;;;;;;;;;;10267168;28;20042;-66
2021/11/06 04:11:18;;;;;;;1.30;1.03;;;;;;;;;;10276584;28;20030;-65
2021/11/06 04:16:16;;;;;;;1.53;1.27;;;;;;;;;;10261155;28;20045;-66
2021/11/06 04:21:13;;;;;;;1.90;1.00;;;;;;;;;;10264805;28;20052;-66
2021/11/06 04:26:12;;;;;;;2.73;0.83;;;;;;;;;;10261938;28;20048;-65
2021/11/06 04:31:09;;;;;;;1.25;0.70;;;;;;;;;;10261757;28;20427;-66
2021/11/06 04:36:08;;;;;;;1.00;0.40;;;;;;;;;;10284467;28;20158;-65
2021/11/06 04:41:06;;;;;;;2.10;1.30;;;;;;;;;;10272813;28;20046;-65
2021/11/06 04:46:03;;;;;;;4.07;1.13;;;;;;;;;;10260905;28;20045;-66
2021/11/06 04:51:01;;;;;;;2.03;1.07;;;;;;;;;;10261430;28;20043;-66
2021/11/06 04:55:58;;;;;;;0.83;0.83;;;;;;;;;;10258998;28;20034;-66
2021/11/06 05:00:56;;;;;;;1.33;0.73;;;;;;;;;;10260501;28;20038;-66
2021/11/06 05:05:54;;;;;;;8.80;1.87;;;;;;;;;;10260853;28;20116;-66
2021/11/06 05:10:51;;;;;;;1.08;0.85;;;;;;;;;;10259577;28;20720;-66
2021/11/06 05:15:48;;;;;;;1.43;0.80;;;;;;;;;;10256655;28;20072;-66
2021/11/06 05:20:46;;;;;;;8.20;1.30;;;;;;;;;;10272297;28;20041;-66
2021/11/06 05:25:46;;;;;;;3.13;1.53;;;;;;;;;;10301425;28;20038;-66
2021/11/06 05:30:44;;;;;;;4.80;1.40;;;;;;;;;;10267880;28;20622;-66
2021/11/06 05:35:41;;;;;;;5.37;1.47;;;;;;;;;;10268368;28;20161;-66
2021/11/06 05:40:39;;;;;;;2.37;1.07;;;;;;;;;;10281323;28;20547;-66
2021/11/06 05:45:36;;;;;;;7.87;1.97;;;;;;;;;;10267250;28;20042;-66
2021/11/06 05:50:34;;;;;;;4.00;1.87;;;;;;;;;;10266374;28;20042;-67
2021/11/06 05:55:31;;;;;;;3.73;2.03;;;;;;;;;;10266607;28;20319;-65
2021/11/06 06:00:28;;;;;;;2.80;1.97;;;;;;;;;;10265342;28;20415;-67
2021/11/06 06:05:26;;;;;;;4.13;2.17;;;;;;;;;;10235589;28;20045;-65
2021/11/06 06:10:24;;;;;;;3.03;2.50;;;;;;;;;;10253587;28;20439;-65
2021/11/06 06:15:21;;;;;;;9.43;3.57;;;;;;;;;;10255424;28;20120;-68
2021/11/06 06:20:19;;;;;;;7.53;3.87;;;;;;;;;;10256871;28;20041;-66
2021/11/06 06:25:16;;;;;;;4.77;3.13;;;;;;;;;;10265290;28;20396;-66
2021/11/06 06:30:14;;;;;;;8.67;3.20;;;;;;;;;;10261977;28;20046;-64
2021/11/06 06:35:13;;;;;;;5.50;2.97;;;;;;;;;;10255081;28;20339;-64
2021/11/06 06:40:11;;;;;;;7.03;3.80;;;;;;;;;;10253436;28;20041;-66
2021/11/06 06:45:09;;;;;;;7.47;4.03;;;;;;;;;;10254394;28;20528;-67
2021/11/06 06:50:07;;;;;;;9.13;4.07;;;;;;;;;;10246745;28;20468;-65
2021/11/06 06:55:04;;;;;;;9.95;3.92;;;;;;;;;;10267665;28;20045;-65
2021/11/06 07:00:06;;;;;;;8.97;4.87;;;;;;;;;;10252954;28;20038;-68
2021/11/06 07:05:04;;;;;;;6.88;4.00;;;;;;;;;;10250328;28;20149;-64
2021/11/06 07:10:02;;;;;;;6.28;4.30;;;;;;;;;;10250007;28;20545;-65
2021/11/06 07:15:00;;;;;;;7.20;4.03;;;;;;;;;;10253103;28;20551;-64
2021/11/06 07:19:57;;;;;;;10.40;4.13;;;;;;;;;;10251552;28;20390;-65
2021/11/06 07:24:55;;;;;;;10.83;5.00;;;;;;;;;;10243215;28;20129;-68
2021/11/06 07:29:52;;;;;;;6.43;4.50;;;;;;;;;;10254891;28;20045;-67
2021/11/06 07:34:50;;;;;;;11.07;4.73;;;;;;;;;;10251691;28;20038;-66
2021/11/06 07:39:47;;;;;;;14.00;5.73;;;;;;;;;;10238896;28;20034;-66
2021/11/06 07:44:45;;;;;;;10.03;4.90;;;;;;;;;;10247987;28;20042;-67
2021/11/06 07:49:42;;;;;;;12.40;5.47;;;;;;;;;;10250937;28;20117;-67
2021/11/06 07:54:40;;;;;;;17.07;6.00;;;;;;;;;;10262117;28;20045;-65
2021/11/06 07:59:37;;;;;;;17.67;7.00;;;;;;;;;;10252313;28;20044;-68
2021/11/06 08:04:35;;;;;;;12.10;6.77;;;;;;;;;;10252535;28;20452;-66
2021/11/06 08:09:32;;;;;;;12.30;5.83;;;;;;;;;;10255204;28;20030;-66
2021/11/06 08:14:30;;;;;;;15.07;7.47;;;;;;;;;;10249455;28;20033;-67
2021/11/06 08:19:27;;;;;;;15.47;8.13;;;;;;;;;;10255528;28;20496;-66
2021/11/06 08:24:25;;;;;;;14.40;7.83;;;;;;;;;;10249932;28;20026;-67
2021/11/06 08:29:22;;;;;;;13.77;7.20;;;;;;;;;;10253022;28;20022;-67
2021/11/06 08:34:20;;;;;;;16.13;6.97;;;;;;;;;;10255518;28;20033;-66
2021/11/06 08:39:19;;;;;;;14.03;7.73;;;;;;;;;;10252997;28;20065;-67
2021/11/06 08:44:18;;;;;;;17.25;8.05;;;;;;;;;;10254926;28;20084;-65
2021/11/06 08:49:15;;;;;;;12.52;7.43;;;;;;;;;;10244591;28;20316;-65
2021/11/06 08:54:14;;;;;;;16.02;8.52;;;;;;;;;;10250755;28;20034;-67
2021/11/06 08:59:19;;;;;;;15.20;8.18;;;;;;;;;;10260789;28;20042;-66
2021/11/06 09:04:17;;;;;;;20.25;9.93;;;;;;;;;;10262236;28;20048;-66
2021/11/06 09:09:15;;;;;;;20.48;10.45;;;;;;;;;;10260745;28;20558;-66
2021/11/06 09:14:13;;;;;;;;;;;;;;;;;;10263230;28;20287;-64
2021/11/06 09:19:10;;;;;;;20.83;9.07;;;;;;;;;;10262225;28;20256;-67
2021/11/06 09:24:08;;;;;;;19.97;8.27;;;;;;;;;;10261993;28;20049;-65
2021/11/06 09:29:07;;;;;;;17.80;8.90;;;;;;;;;;10258709;28;20533;-66
2021/11/06 09:34:07;;;;;;;21.08;9.52;;;;;;;;;;10251242;28;20419;-66
2021/11/06 09:39:05;;;;;;;18.52;8.88;;;;;;;;;;10260462;28;20042;-66
2021/11/06 09:44:03;;;;;;;;;;;;;;;;;;10260067;28;20416;-67
2021/11/06 09:49:01;;;;;;;19.05;9.82;;;;;;;;;;10261811;28;19917;-67
2021/11/06 09:53:58;;;;;;;14.27;8.40;;;;;;;;;;10261266;28;20034;-66
2021/11/06 09:59:00;;;;;;;19.90;8.50;;;;;;;;;;10259264;28;20273;-65
2021/11/06 10:03:58;;;;;;;18.63;8.80;;;;;;;;;;10260278;28;20706;-64
2021/11/06 10:08:57;;;;;;;11.73;7.05;;;;;;;;;;10260644;28;20636;-63
2021/11/06 10:13:56;;;;;;;20.80;8.85;;;;;;;;;;10265491;28;20064;-65
2021/11/06 10:19:02;;;;;;;14.65;8.05;;;;;;;;;;10250138;28;20050;-66
2021/11/06 10:23:59;;;;;;;17.50;8.07;;;;;;;;;;10248827;28;20038;-65
2021/11/06 10:29:27;;;;;;;15.70;8.23;;;;;;;;;;10257583;28;20038;-66
2021/11/06 10:34:26;;;;;;;16.63;9.05;;;;;;;;;;10261412;28;20038;-66
2021/11/06 10:39:24;;;;;;;16.67;8.57;;;;;;;;;;10268441;28;20034;-66
2021/11/06 10:44:21;;;;;;;17.17;9.90;;;;;;;;;;10260665;28;20531;-64
2021/11/06 10:49:38;;;;;;;19.57;10.43;;;;;;;;;;10262164;28;20029;-65
2021/11/06 10:54:55;;;;;;;23.42;11.00;;;;;;;;;;10258634;28;20041;-65
2021/11/06 11:00:04;;;;;;;17.70;10.55;;;;;;;;;;10261014;28;20648;-65
2021/11/06 11:05:02;;;;;;;16.30;9.18;;;;;;;;;;10251503;28;20044;-65
2021/11/06 11:10:00;;;;;;;13.07;7.25;;;;;;;;;;10272894;28;20483;-64
2021/11/06 11:14:57;;;;;;;23.40;9.07;;;;;;;;;;10258769;28;20045;-65
2021/11/06 11:19:55;;;;;;;13.30;5.63;;;;;;;;;;10261315;28;20546;-65
2021/11/06 11:24:53;;;;;;;14.27;7.67;;;;;;;;;;10255904;28;20058;-65
2021/11/06 11:29:50;;;;;;;11.60;5.63;;;;;;;;;;10247973;28;20038;-65
2021/11/06 11:34:48;;;;;;;14.37;7.33;;;;;;;;;;10259655;28;20034;-66
2021/11/06 11:39:46;;;;;;;14.93;6.90;;;;;;;;;;10253028;28;20276;-65
2021/11/06 11:44:44;;;;;;;;;;;;;;;;;;10259214;28;20045;-65
2021/11/06 11:49:43;;;;;;;13.43;6.80;;;;;;;;;;10254705;28;19917;-66
2021/11/06 11:54:54;;;;;;;15.00;7.90;;;;;;;;;;10267574;28;20033;-66
2021/11/06 11:59:52;;;;;;;15.55;7.72;;;;;;;;;;10258357;28;20076;-66
2021/11/06 12:05:08;;;;;;;18.55;8.40;;;;;;;;;;10257716;28;20068;-66
2021/11/06 12:10:24;;;;;;;15.43;6.03;;;;;;;;;;10247776;28;20401;-66
2021/11/06 12:15:42;;;;;;;12.07;7.15;;;;;;;;;;10256232;28;20038;-66
2021/11/06 12:20:39;;;;;;;15.13;6.07;;;;;;;;;;10255877;28;20561;-66
2021/11/06 12:25:37;;;;;;;13.23;6.70;;;;;;;;;;10261234;28;20423;-66
2021/11/06 12:30:35;;;;;;;12.20;7.10;;;;;;;;;;10261118;28;20048;-66
2021/11/06 12:35:33;;;;;;;20.48;7.13;;;;;;;;;;10259952;28;20038;-66
2021/11/06 12:40:46;;;;;;;12.33;6.67;;;;;;;;;;10266442;28;20073;-65
2021/11/06 12:45:46;;;;;;;12.93;6.18;;;;;;;;;;10259915;28;20054;-65
2021/11/06 12:51:02;;;;;;;14.93;6.22;;;;;;;;;;10257625;28;20373;-66
2021/11/06 12:56:03;;;;;;;13.27;5.75;;;;;;;;;;10247254;28;20132;-65
2021/11/06 13:01:18;;;;;;;16.70;6.53;;;;;;;;;;10257573;28;20427;-66
2021/11/06 13:06:20;;;;;;;13.65;6.15;;;;;;;;;;10246233;28;20519;-66
2021/11/06 13:11:17;;;;;;;12.40;6.50;;;;;;;;;;10257944;28;20388;-65
2021/11/06 13:16:17;;;;;;;16.17;6.30;;;;;;;;;;10261570;28;20034;-66
2021/11/06 13:21:14;;;;;;;15.32;6.22;;;;;;;;;;10263167;28;20408;-66
2021/11/06 13:26:11;;;;;;;17.10;6.83;;;;;;;;;;10252302;28;20064;-65
2021/11/06 13:31:09;;;;;;;15.17;5.73;;;;;;;;;;10261472;28;20062;-66
2021/11/06 13:36:08;;;;;;;11.90;5.63;;;;;;;;;;10254175;28;20038;-66
2021/11/06 13:41:22;;;;;;;15.45;6.35;;;;;;;;;;10249213;28;20273;-66
2021/11/06 13:46:32;;;;;;;17.13;6.40;;;;;;;;;;10245894;28;20038;-65
2021/11/06 13:51:48;;;;;;;12.57;5.78;;;;;;;;;;10249463;28;20034;-66
2021/11/06 13:56:48;;;;;;;15.77;6.15;;;;;;;;;;10260055;28;20465;-65
2021/11/06 14:01:46;;;;;;;15.65;6.80;;;;;;;;;;10261047;28;20415;-65
2021/11/06 14:06:48;;;;;;;15.32;7.00;;;;;;;;;;10261793;28;20053;-65
2021/11/06 14:11:45;;;;;;;11.90;6.15;;;;;;;;;;10253564;28;20034;-65
2021/11/06 14:16:43;;;;;;;13.17;5.77;;;;;;;;;;10265497;28;20053;-68
2021/11/06 14:21:46;;;;;;;12.20;6.47;;;;;;;;;;10269128;28;20057;-69
2021/11/06 14:26:46;;;;;;;11.15;5.28;;;;;;;;;;10266319;28;20284;-67
2021/11/06 14:31:54;;;;;;;12.52;6.55;;;;;;;;;;10267910;28;20034;-69
2021/11/06 14:36:56;;;;;;;11.77;6.40;;;;;;;;;;10267977;28;20034;-68
2021/11/06 14:41:58;;;;;;;16.52;5.75;;;;;;;;;;10268883;28;20034;-68
2021/11/06 14:47:00;;;;;;;10.02;5.55;;;;;;;;;;10268905;28;20045;-68
2021/11/06 14:52:00;;;;;;;15.75;6.20;;;;;;;;;;10267740;28;20092;-66
2021/11/06 14:56:57;;;;;;;12.38;6.13;;;;;;;;;;10267311;28;20555;-69
2021/11/06 15:01:56;;;;;;;13.43;7.10;;;;;;;;;;10267123;28;20554;-68
2021/11/06 15:06:54;;;;;;;12.98;5.72;;;;;;;;;;10266053;28;20041;-68
2021/11/06 15:11:54;;;;;;;11.00;6.45;;;;;;;;;;10266132;28;20520;-68
2021/11/06 15:16:52;;;;;;;10.05;5.22;;;;;;;;;;10264847;28;20038;-67
2021/11/06 15:21:49;;;;;;;7.60;4.60;;;;;;;;;;10267035;28;20508;-65
2021/11/06 15:26:47;;;;;;;12.97;6.47;;;;;;;;;;10266186;28;20042;-67
2021/11/06 15:31:44;;;;;;;11.80;6.20;;;;;;;;;;10257647;28;20037;-65
2021/11/06 15:36:42;;;;;;;11.83;5.27;;;;;;;;;;10268840;28;20145;-66
2021/11/06 15:41:39;;;;;;;11.03;5.57;;;;;;;;;;10203368;22;20052;-64
2021/11/06 15:46:37;;;;;;;13.60;5.77;;;;;;;;;;10079836;28;20121;-63
2021/11/06 15:56:35;;;;;;;8.77;5.30;;;;;;;;;;10048867;28;20039;-63
2021/11/06 16:01:32;;;;;;;7.32;4.65;;;;;;;;;;10030538;28;20383;-64
2021/11/06 16:06:30;;;;;;;13.67;5.27;;;;;;;;;;10036713;28;20056;-65
2021/11/06 16:11:27;;;;;;;10.80;6.33;;;;;;;;;;10037914;28;20525;-61
2021/11/06 16:16:26;;;;;;;9.00;5.77;;;;;;;;;;10051233;28;20044;-64
2021/11/06 16:21:27;;;;;;;9.10;5.07;;;;;;;;;;10038712;28;20032;-62
2021/11/06 16:26:24;;;;;;;11.45;6.40;;;;;;;;;;10050367;28;20481;-63
2021/11/06 16:31:22;;;;;;;17.03;6.87;;;;;;;;;;10031558;28;20158;-62
2021/11/06 16:36:21;;;;;;;9.68;5.35;;;;;;;;;;10022707;28;20276;-66
2021/11/06 16:41:18;;;;;;;11.50;5.95;;;;;;;;;;10040800;28;20051;-62
2021/11/06 16:46:19;;;;;;;14.02;5.38;;;;;;;;;;10048010;28;20386;-59
2021/11/06 16:51:19;;;;;;;9.57;5.05;;;;;;;;;;10056942;28;20127;-61
2021/11/06 16:56:16;;;;;;;8.55;4.55;;;;;;;;;;10040597;28;20488;-62
2021/11/06 17:01:14;;;;;;;11.85;5.80;;;;;;;;;;10042762;28;20098;-61
2021/11/06 17:06:16;;;;;;;9.57;4.83;;;;;;;;;;10017917;28;20535;-62
2021/11/06 17:11:15;;;;;;;9.93;6.30;;;;;;;;;;10040677;28;20533;-62
2021/11/06 17:16:12;;;;;;;9.35;4.63;;;;;;;;;;10028186;28;20079;-62
2021/11/06 17:21:10;;;;;;;9.77;5.20;;;;;;;;;;10065844;28;20131;-63
2021/11/06 17:26:07;;;;;;;7.50;5.17;;;;;;;;;;10055095;28;20050;-62
2021/11/06 17:31:05;;;;;;;6.13;3.93;;;;;;;;;;10041169;28;20405;-58
2021/11/06 17:36:03;;;;;;;12.90;6.20;;;;;;;;;;10043350;28;20409;-63
2021/11/06 17:41:01;;;;;;;7.40;5.47;;;;;;;;;;10036315;28;20106;-63
2021/11/06 17:45:59;;;;;;;10.33;5.07;;;;;;;;;;10056029;28;20047;-59
2021/11/06 17:51:15;;;;;;;5.57;4.13;;;;;;;;;;10024196;28;20048;-61
2021/11/06 17:56:12;;;;;;;9.00;4.97;;;;;;;;;;10042621;28;20043;-62
2021/11/06 18:01:10;;;;;;;7.80;4.97;;;;;;;;;;10008316;28;20040;-62
2021/11/06 18:06:07;;;;;;;7.30;4.60;;;;;;;;;;10028150;28;20051;-61
2021/11/06 18:11:06;;;;;;;5.93;5.07;;;;;;;;;;10010825;28;20040;-61
2021/11/06 18:16:05;;;;;;;9.23;5.13;;;;;;;;;;10032108;28;20414;-61
2021/11/06 18:21:03;;;;;;;8.93;4.97;;;;;;;;;;10057517;28;20037;-61
2021/11/06 18:26:02;;;;;;;13.68;5.85;;;;;;;;;;10047844;28;20184;-64
2021/11/06 18:31:00;;;;;;;8.10;5.00;;;;;;;;;;10017049;28;20048;-63
2021/11/06 18:35:57;;;;;;;9.93;4.57;;;;;;;;;;10034304;28;20045;-60
2021/11/06 18:40:54;;;;;;;5.67;4.83;;;;;;;;;;10018968;28;20297;-62
2021/11/06 18:45:52;;;;;;;9.77;6.17;;;;;;;;;;10034485;28;20407;-62
2021/11/06 18:50:50;;;;;;;9.63;5.03;;;;;;;;;;10036757;28;20597;-63
2021/11/06 18:55:48;;;;;;;9.82;5.07;;;;;;;;;;10044393;28;20036;-61
2021/11/06 19:00:45;;;;;;;7.13;5.33;;;;;;;;;;10035401;28;20036;-61
2021/11/06 19:05:42;;;;;;;8.27;4.80;;;;;;;;;;10064101;28;20051;-59
2021/11/06 19:10:40;;;;;;;12.80;6.27;;;;;;;;;;10075777;28;20263;-60
2021/11/06 19:15:38;;;;;;;9.67;5.47;;;;;;;;;;10138590;28;20056;-62
2021/11/06 19:20:36;;;;;;;10.57;5.70;;;;;;;;;;10129505;28;20036;-60
2021/11/06 19:25:34;;;;;;;12.82;6.13;;;;;;;;;;10109459;28;20103;-61
2021/11/06 19:30:32;;;;;;;14.73;6.60;;;;;;;;;;10138560;28;20044;-61
2021/11/06 19:35:29;;;;;;;11.50;6.47;;;;;;;;;;10121409;28;20045;-60
2021/11/06 19:40:27;;;;;;;12.50;5.80;;;;;;;;;;10128920;28;20426;-64
2021/11/06 19:45:27;;;;;;;10.73;5.85;;;;;;;;;;10129311;28;20129;-64
2021/11/06 19:50:26;;;;;;;11.52;6.55;;;;;;;;;;10127690;28;20107;-63
2021/11/06 19:55:24;;;;;;;13.00;6.68;;;;;;;;;;10130296;28;20641;-64
2021/11/06 20:00:23;;;;;;;10.68;6.88;;;;;;;;;;10132425;28;20320;-63
2021/11/06 20:05:20;;;;;;;10.68;5.78;;;;;;;;;;10139930;28;20136;-65
2021/11/06 20:10:20;;;;;;;10.65;5.63;;;;;;;;;;10102931;28;20047;-62
2021/11/06 20:15:17;;;;;;;13.07;6.00;;;;;;;;;;10131999;28;20045;-62
2021/11/06 20:20:17;;;;;;;10.37;5.27;;;;;;;;;;10136621;28;20099;-63
2021/11/06 20:25:15;;;;;;;12.52;5.75;;;;;;;;;;10140552;28;20056;-63
2021/11/06 20:30:13;;;;;;;13.85;7.13;;;;;;;;;;10131735;28;20026;-62
2021/11/06 20:35:11;;;;;;;11.68;5.78;;;;;;;;;;10129357;28;20473;-63
2021/11/06 20:40:10;;;;;;;11.63;6.38;;;;;;;;;;10117530;28;20142;-63
2021/11/06 20:45:08;;;;;;;17.55;7.15;;;;;;;;;;10118955;28;20113;-62
2021/11/06 20:50:07;;;;;;;19.40;7.82;;;;;;;;;;10115257;28;20041;-61
2021/11/06 20:55:05;;;;;;;14.35;6.70;;;;;;;;;;10116970;28;20139;-63
2021/11/06 21:00:07;;;;;;;34.77;18.80;;;;;;;;;;10122556;28;20040;-63
2021/11/06 21:05:08;;;;;;;21.77;12.57;;;;;;;;;;10111973;28;20044;-63
2021/11/06 21:10:08;;;;;;;17.77;10.90;;;;;;;;;;10124520;28;20450;-63
2021/11/06 21:15:52;;;;;;;18.77;9.20;;;;;;;;;;10133031;28;20069;-64
2021/11/06 21:20:26;;;;;;;9.80;6.60;;;;;;;;;;10113949;28;20092;-64
2021/11/06 21:25:25;;;;;;;10.38;6.45;;;;;;;;;;10135033;28;20052;-61
2021/11/06 21:30:22;;;;;;;15.20;6.13;;;;;;;;;;10119336;28;20044;-65
2021/11/06 21:35:22;;;;;;;14.93;7.37;;;;;;;;;;10133298;28;20048;-64
2021/11/06 21:45:35;;;;;;;13.82;6.97;;;;;;;;;;10102968;28;20052;-61
2021/11/06 21:50:33;;;;;;;16.25;8.10;;;;;;;;;;10115198;28;20513;-61
2021/11/06 21:55:32;;;;;;;8.23;5.87;;;;;;;;;;10145108;28;20420;-62
2021/11/06 22:00:32;;;;;;;11.43;6.85;;;;;;;;;;10152400;28;20045;-62
2021/11/06 22:05:29;;;;;;;10.38;6.68;;;;;;;;;;10148193;28;20511;-62
2021/11/06 22:10:30;;;;;;;11.37;7.30;;;;;;;;;;10149401;28;20041;-61
2021/11/06 22:15:28;;;;;;;10.98;7.13;;;;;;;;;;10154702;28;20054;-61
2021/11/06 22:20:28;;;;;;;13.67;7.53;;;;;;;;;;10158889;28;20039;-61
2021/11/06 22:25:27;;;;;;;11.65;7.30;;;;;;;;;;10155876;28;20494;-60
2021/11/06 22:30:24;;;;;;;9.50;6.85;;;;;;;;;;10159473;28;20791;-61
2021/11/06 22:35:23;;;;;;;9.93;7.33;;;;;;;;;;10149741;28;20042;-61
2021/11/06 22:40:21;;;;;;;13.02;7.90;;;;;;;;;;10162054;28;20039;-61
2021/11/06 22:45:18;;;;;;;;;;;;;;;;;;10151329;28;20043;-61
2021/11/06 22:50:18;;;;;;;15.40;6.63;;;;;;;;;;10163047;28;19929;-61
2021/11/06 22:55:16;;;;;;;10.38;7.88;;;;;;;;;;10160674;28;20043;-61
2021/11/06 23:00:36;;;;;;;14.30;7.03;;;;;;;;;;10163555;28;20049;-61
2021/11/06 23:05:33;;;;;;;10.30;6.22;;;;;;;;;;10162746;28;20066;-60
2021/11/06 23:10:31;;;;;;;11.07;6.57;;;;;;;;;;10145446;28;20039;-60
2021/11/06 23:15:33;;;;;;;11.47;6.70;;;;;;;;;;10158308;28;20039;-60
2021/11/06 23:20:31;;;;;;;12.38;6.32;;;;;;;;;;10161342;28;20103;-60
2021/11/06 23:25:29;;;;;;;11.38;7.05;;;;;;;;;;10163478;28;20074;-60
2021/11/06 23:30:27;;;;;;;11.05;5.68;;;;;;;;;;10155490;28;20126;-60
2021/11/06 23:35:25;;;;;;;10.95;6.00;;;;;;;;;;10155429;28;20047;-60
2021/11/06 23:40:25;;;;;;;13.80;7.53;;;;;;;;;;10158410;28;20893;-60
2021/11/06 23:45:22;;;;;;;9.05;5.75;;;;;;;;;;10162891;28;21220;-60
2021/11/06 23:50:27;;;;;;;15.30;6.50;;;;;;;;;;10163740;28;20046;-60
2021/11/06 23:55:32;;;;;;;6.63;5.40;;;;;;;;;;10161639;28;20088;-60
